Time;durP1;ratioP1;P1;durP2;ratioP2;P2;SDS_P1;SDS_P2;PMS_P1;PMS_P2;Temp;Humidity;BMP_temperature;BMP_pressure;BME280_temperature;BME280_humidity;BME280_pressure;Samples;Min_cycle;Max_cycle;Signal;HPM_P1;HPM_P2
2022/01/01 00:02:21;;;;;;;65.53;59.83;;;;;;;24.18;35.72;95466.84;4953704;28;102747;-52
2022/01/01 00:04:47;;;;;;;66.50;60.80;;;;;;;24.18;35.82;95451.63;4955616;28;103267;-52
2022/01/01 00:07:14;;;;;;;66.20;60.20;;;;;;;24.19;35.53;95460.44;4955711;28;102710;-52
2022/01/01 00:09:41;;;;;;;64.27;58.87;;;;;;;24.19;35.44;95468.47;4964969;28;103807;-52
2022/01/01 00:12:07;;;;;;;62.83;57.23;;;;;;;24.19;35.70;95460.44;4974449;28;103240;-52
2022/01/01 00:14:33;;;;;;;63.37;57.77;;;;;;;24.19;35.96;95453.22;4975125;28;103461;-52
2022/01/01 00:16:58;;;;;;;62.30;56.73;;;;;;;24.21;35.64;95461.72;4958746;28;102919;-52
2022/01/01 00:19:24;;;;;;;60.37;55.07;;;;;;;24.17;35.47;95460.72;4953781;28;103867;-52
2022/01/01 00:21:49;;;;;;;59.77;54.50;;;;;;;24.18;35.37;95456.19;4957150;28;103342;-51
2022/01/01 00:24:15;;;;;;;57.17;52.40;;;;;;;24.15;35.47;95449.56;4951683;28;103246;-52
2022/01/01 00:26:41;;;;;;;57.10;52.20;;;;;;;24.13;35.46;95454.41;4956717;28;103105;-51
2022/01/01 00:29:07;;;;;;;57.33;52.43;;;;;;;24.11;35.86;95458.47;4953487;28;103390;-53
2022/01/01 00:31:32;;;;;;;61.47;56.17;;;;;;;24.03;35.35;95449.34;4959247;28;102746;-53
2022/01/01 00:33:59;;;;;;;63.03;57.53;;;;;;;23.95;35.18;95450.81;4953167;28;102780;-53
2022/01/01 00:36:27;;;;;;;62.23;56.87;;;;;;;23.91;35.67;95451.72;4955962;28;102705;-53
2022/01/01 00:38:54;;;;;;;66.50;60.80;;;;;;;23.86;35.33;95439.28;4958187;28;103853;-53
2022/01/01 00:41:19;;;;;;;65.57;59.80;;;;;;;23.83;34.86;95437.19;4957031;28;103373;-53
2022/01/01 00:43:45;;;;;;;68.17;61.90;;;;;;;23.82;35.16;95442.84;4957802;28;102763;-53
2022/01/01 00:46:11;;;;;;;69.27;63.37;;;;;;;23.80;34.65;95453.03;4958546;28;103128;-53
2022/01/01 00:48:37;;;;;;;66.60;60.80;;;;;;;23.78;35.27;95448.00;4957908;28;103419;-53
2022/01/01 00:51:02;;;;;;;67.30;61.53;;;;;;;23.76;34.74;95444.84;4958361;28;104572;-53
2022/01/01 00:53:28;;;;;;;67.30;61.50;;;;;;;23.75;35.11;95440.59;4959303;28;102793;-53
2022/01/01 00:55:53;;;;;;;67.60;61.60;;;;;;;23.73;35.03;95436.66;4957843;28;103449;-53
2022/01/01 00:58:19;;;;;;;68.00;62.07;;;;;;;23.72;35.03;95427.88;4957974;28;103266;-53
2022/01/01 01:00:45;;;;;;;66.60;60.83;;;;;;;23.69;34.85;95426.59;4958259;28;103416;-53
2022/01/01 01:03:12;;;;;;;71.57;65.37;;;;;;;23.67;34.77;95418.06;4958120;28;103234;-53
2022/01/01 01:05:39;;;;;;;66.57;61.03;;;;;;;23.67;34.79;95412.72;4958788;28;102690;-53
2022/01/01 01:08:07;;;;;;;65.50;59.90;;;;;;;23.66;34.48;95411.16;4956520;28;102747;-52
2022/01/01 01:10:33;;;;;;;63.43;58.07;;;;;;;23.64;34.38;95408.00;4957641;28;102725;-53
2022/01/01 01:12:59;;;;;;;63.73;58.23;;;;;;;23.63;34.67;95411.75;4956455;28;102709;-53
2022/01/01 01:15:24;;;;;;;63.20;57.70;;;;;;;23.62;34.86;95402.19;4958729;28;103255;-53
2022/01/01 01:17:52;;;;;;;64.77;59.33;;;;;;;23.61;34.65;95399.81;4957216;28;103600;-53
2022/01/01 01:20:20;;;;;;;68.30;62.50;;;;;;;23.60;34.85;95396.34;4956715;28;102786;-53
2022/01/01 01:22:46;;;;;;;62.90;57.53;;;;;;;23.60;34.63;95406.25;4958579;28;103029;-53
2022/01/01 01:25:13;;;;;;;63.93;58.73;;;;;;;23.60;34.34;95417.69;4950275;28;102742;-53
2022/01/01 01:27:39;;;;;;;64.00;58.50;;;;;;;23.59;34.75;95412.66;4956680;28;103177;-53
2022/01/01 01:30:08;;;;;;;61.20;56.10;;;;;;;23.57;34.55;95404.19;4956045;28;102907;-53
2022/01/01 01:32:34;;;;;;;64.67;59.17;;;;;;;23.57;34.36;95404.97;4957282;28;102883;-53
2022/01/01 01:35:00;;;;;;;61.67;56.57;;;;;;;23.56;34.92;95423.91;4939522;28;102782;-53
2022/01/01 01:37:26;;;;;;;61.00;55.70;;;;;;;23.55;34.83;95417.00;4957266;28;103448;-53
2022/01/01 01:39:52;;;;;;;64.27;58.77;;;;;;;23.54;34.52;95418.88;4956108;28;102754;-53
2022/01/01 01:42:17;;;;;;;61.97;56.80;;;;;;;23.52;34.38;95423.72;4957251;28;102762;-53
2022/01/01 01:44:45;;;;;;;60.60;55.60;;;;;;;23.54;33.99;95423.41;4944256;28;102696;-53
2022/01/01 01:47:27;;;;;;;57.27;52.43;;;;;;;23.53;34.11;95427.97;4950695;28;103484;-53
2022/01/01 01:49:52;;;;;;;62.77;57.37;;;;;;;23.53;34.36;95432.50;4954981;28;103766;-53
2022/01/01 01:52:19;;;;;;;58.10;53.10;;;;;;;23.52;34.72;95434.38;4957715;28;103216;-53
2022/01/01 01:54:46;;;;;;;59.83;54.83;;;;;;;23.50;34.22;95428.53;4957387;28;102861;-53
2022/01/01 01:57:12;;;;;;;59.10;54.23;;;;;;;23.50;34.01;95427.75;4957334;28;103270;-53
2022/01/01 01:59:38;;;;;;;57.60;52.70;;;;;;;23.49;33.93;95432.28;4957299;28;102680;-53
2022/01/01 02:02:04;;;;;;;60.50;55.40;;;;;;;23.49;34.65;95428.84;4956042;28;102908;-53
2022/01/01 02:04:29;;;;;;;56.13;51.43;;;;;;;23.49;34.30;95428.84;4958240;28;102840;-53
2022/01/01 02:06:55;;;;;;;55.40;50.70;;;;;;;23.48;34.28;95421.94;4956706;28;102743;-53
2022/01/01 02:09:22;;;;;;;59.40;54.20;;;;;;;23.47;34.39;95420.34;4958009;28;102669;-54
2022/01/01 02:11:48;;;;;;;55.97;51.37;;;;;;;23.47;34.33;95418.47;4938806;28;103543;-53
2022/01/01 02:14:21;;;;;;;53.50;49.03;;;;;;;23.46;34.22;95413.44;4956661;28;102723;-53
2022/01/01 02:17:07;;;;;;;55.27;50.67;;;;;;;23.46;34.08;95410.78;4957173;28;102763;-53
2022/01/01 02:19:46;;;;;;;54.23;49.67;;;;;;;23.46;33.75;95411.56;4957237;28;102880;-53
2022/01/01 02:22:12;;;;;;;53.73;49.33;;;;;;;23.45;34.34;95409.97;4956920;28;104381;-53
2022/01/01 02:24:38;;;;;;;52.93;48.50;;;;;;;23.46;34.17;95411.56;4972197;28;102890;-53
2022/01/01 02:27:03;;;;;;;55.17;50.47;;;;;;;23.45;34.02;95399.31;4960464;28;103166;-53
2022/01/01 02:29:29;;;;;;;49.13;45.10;;;;;;;23.44;34.13;95397.75;4959849;28;102868;-53
2022/01/01 02:31:54;;;;;;;49.93;45.73;;;;;;;23.44;34.11;95397.75;4961400;28;103149;-54
2022/01/01 02:34:20;;;;;;;52.00;47.70;;;;;;;23.43;33.96;95409.50;4960223;28;102787;-54
2022/01/01 02:36:46;;;;;;;51.50;47.20;;;;;;;23.42;34.19;95399.91;4959283;28;102823;-53
2022/01/01 02:39:13;;;;;;;49.93;45.70;;;;;;;23.41;33.99;95393.81;4960180;28;103200;-53
2022/01/01 02:41:39;;;;;;;48.07;44.00;;;;;;;23.40;34.21;95392.22;4960477;28;102803;-53
2022/01/01 02:44:06;;;;;;;47.00;43.10;;;;;;;23.41;33.66;95396.47;4959879;28;102879;-53
2022/01/01 02:46:33;;;;;;;45.97;42.20;;;;;;;23.40;33.66;95391.44;4959526;28;102949;-53
2022/01/01 02:48:58;;;;;;;46.20;42.27;;;;;;;23.40;33.92;95392.22;4958879;28;102748;-53
2022/01/01 02:51:24;;;;;;;46.73;42.73;;;;;;;23.39;33.90;95393.31;4942198;28;103446;-54
2022/01/01 02:53:49;;;;;;;43.67;40.03;;;;;;;23.40;34.00;95394.88;4960592;28;103761;-54
2022/01/01 02:56:15;;;;;;;43.40;39.80;;;;;;;23.37;33.79;95387.50;4959580;28;102825;-54
2022/01/01 02:58:41;;;;;;;42.90;39.30;;;;;;;23.39;33.53;95395.19;4958706;28;104766;-53
2022/01/01 03:01:07;;;;;;;41.10;37.70;;;;;;;23.39;33.79;95389.84;4958851;28;103176;-53
2022/01/01 03:03:33;;;;;;;42.50;39.00;;;;;;;23.38;33.70;95382.94;4959868;28;102869;-53
2022/01/01 03:05:58;;;;;;;40.83;37.30;;;;;;;23.38;33.57;95388.28;4959783;28;102724;-53
2022/01/01 03:08:24;;;;;;;39.73;36.50;;;;;;;23.38;33.94;95385.63;4959319;28;105267;-54
2022/01/01 03:10:49;;;;;;;38.93;35.73;;;;;;;23.37;33.57;95376.03;4959598;28;102754;-53
2022/01/01 03:13:16;;;;;;;37.93;34.87;;;;;;;23.36;34.07;95380.59;4959860;28;103005;-53
2022/01/01 03:15:42;;;;;;;38.73;35.43;;;;;;;23.37;33.88;95370.69;4958912;28;102731;-53
2022/01/01 03:18:07;;;;;;;36.03;33.07;;;;;;;23.36;33.43;95361.13;4959290;28;102839;-53
2022/01/01 03:20:32;;;;;;;37.83;34.70;;;;;;;23.36;33.67;95363.78;4958839;28;102947;-53
2022/01/01 03:22:58;;;;;;;35.67;32.77;;;;;;;23.35;33.63;95362.22;4959769;28;102694;-53
2022/01/01 03:25:24;;;;;;;35.53;32.63;;;;;;;23.35;33.55;95364.88;4959296;28;103341;-53
2022/01/01 03:27:49;;;;;;;35.47;32.47;;;;;;;23.35;33.85;95367.56;4959521;28;102848;-53
2022/01/01 03:30:15;;;;;;;34.50;31.60;;;;;;;23.34;33.86;95366.72;4958388;28;102794;-53
2022/01/01 03:32:40;;;;;;;34.17;31.37;;;;;;;23.34;33.67;95360.63;4958711;28;102767;-53
2022/01/01 03:35:06;;;;;;;33.00;30.30;;;;;;;23.34;33.89;95356.06;4959796;28;103252;-53
2022/01/01 03:37:32;;;;;;;33.77;30.90;;;;;;;23.33;33.36;95357.16;4959528;28;105129;-53
2022/01/01 03:39:57;;;;;;;31.73;29.10;;;;;;;23.34;33.64;95357.94;4959239;28;102692;-53
2022/01/01 03:42:23;;;;;;;29.90;27.40;;;;;;;23.34;33.18;95365.94;4958580;28;102828;-53
2022/01/01 03:44:48;;;;;;;31.63;29.03;;;;;;;23.34;33.41;95360.63;4960293;28;103220;-54
2022/01/01 03:47:14;;;;;;;32.07;29.37;;;;;;;23.34;33.43;95366.72;4959668;28;102700;-53
2022/01/01 03:49:39;;;;;;;30.37;27.80;;;;;;;23.35;33.93;95367.56;4959058;28;102742;-53
2022/01/01 03:52:06;;;;;;;29.80;27.40;;;;;;;23.34;34.04;95365.94;4959372;28;102732;-53
2022/01/01 03:54:32;;;;;;;29.63;27.13;;;;;;;23.35;33.29;95372.88;4959784;28;102618;-53
2022/01/01 03:56:57;;;;;;;29.90;27.50;;;;;;;23.35;33.75;95378.22;4958860;28;103451;-53
2022/01/01 03:59:25;;;;;;;29.20;26.80;;;;;;;23.35;33.47;95370.22;4957236;28;102984;-53
2022/01/01 04:01:51;;;;;;;28.57;26.07;;;;;;;23.36;33.19;95361.91;4958792;28;102841;-54
2022/01/01 04:04:16;;;;;;;27.70;25.50;;;;;;;23.34;33.78;95336.63;4957893;28;103055;-53
2022/01/01 04:06:42;;;;;;;26.30;24.10;;;;;;;23.33;33.96;95343.81;4959705;28;103252;-53
2022/01/01 04:09:07;;;;;;;25.77;23.57;;;;;;;23.34;33.77;95350.72;4959378;28;103017;-53
2022/01/01 04:11:33;;;;;;;26.30;24.10;;;;;;;23.34;33.73;95332.06;4959922;28;102823;-53
2022/01/01 04:13:58;;;;;;;26.60;24.40;;;;;;;23.34;33.68;95340.06;4972138;28;102883;-54
2022/01/01 04:16:24;;;;;;;26.63;24.50;;;;;;;23.35;33.72;95338.22;4958813;28;103580;-53
2022/01/01 04:18:49;;;;;;;24.67;22.70;;;;;;;23.34;33.20;95350.72;4958647;28;102843;-53
2022/01/01 04:21:16;;;;;;;22.47;20.70;;;;;;;23.34;33.34;95333.94;4959522;28;102638;-53
2022/01/01 04:23:43;;;;;;;24.20;22.37;;;;;;;23.34;33.50;95320.63;4959253;28;103227;-54
2022/01/01 04:26:10;;;;;;;24.70;22.60;;;;;;;23.35;33.36;95322.22;4957806;28;102936;-53
2022/01/01 04:28:36;;;;;;;24.60;22.60;;;;;;;23.34;33.44;95316.06;4957330;28;102812;-53
2022/01/01 04:31:02;;;;;;;23.43;21.53;;;;;;;23.34;33.44;95329.41;4958897;28;102761;-54
2022/01/01 04:33:28;;;;;;;22.73;20.90;;;;;;;23.34;33.56;95332.06;4955945;28;103383;-53
2022/01/01 04:35:53;;;;;;;22.47;20.67;;;;;;;23.34;33.76;95333.94;4958362;28;102752;-53
2022/01/01 04:38:39;;;;;;;22.77;20.87;;;;;;;23.35;33.60;95319.56;4958681;28;102643;-53
2022/01/01 04:41:08;;;;;;;22.90;21.00;;;;;;;23.35;33.59;95298.22;4958485;28;102784;-53
2022/01/01 04:43:33;;;;;;;22.17;20.30;;;;;;;23.35;32.98;95293.69;4957726;28;103139;-53
2022/01/01 04:45:59;;;;;;;20.07;18.47;;;;;;;23.36;33.64;95299.81;4958511;28;102567;-53
2022/01/01 04:48:25;;;;;;;21.50;19.80;;;;;;;23.36;33.00;95292.59;4956266;28;102768;-54
2022/01/01 04:50:52;;;;;;;21.60;19.70;;;;;;;23.34;33.72;95297.41;4957778;28;102787;-53
2022/01/01 04:53:18;;;;;;;21.00;19.30;;;;;;;23.35;33.32;95309.69;4957718;28;102906;-53
2022/01/01 04:55:45;;;;;;;20.73;19.03;;;;;;;23.35;33.30;95314.22;4956692;28;103551;-53
2022/01/01 04:58:10;;;;;;;21.43;19.63;;;;;;;23.35;33.29;95307.00;4957472;28;102762;-53
2022/01/01 05:00:36;;;;;;;22.17;20.37;;;;;;;23.35;33.71;95303.56;4956587;28;102694;-53
2022/01/01 05:03:02;;;;;;;22.20;20.40;;;;;;;23.35;33.26;95304.34;4972023;28;102876;-53
2022/01/01 05:05:27;;;;;;;21.77;20.07;;;;;;;23.36;33.33;95305.94;4958600;28;102809;-53
2022/01/01 05:07:53;;;;;;;22.37;20.57;;;;;;;23.34;33.15;95304.63;4957989;28;102917;-53
2022/01/01 05:10:18;;;;;;;22.27;20.37;;;;;;;23.34;33.50;95310.75;4957821;28;103291;-53
2022/01/01 05:12:44;;;;;;;19.93;18.33;;;;;;;23.36;32.97;95321.13;4958052;28;102549;-53
2022/01/01 05:15:10;;;;;;;19.50;18.00;;;;;;;23.36;33.00;95334.47;4957830;28;103608;-53
2022/01/01 05:17:36;;;;;;;20.47;18.87;;;;;;;23.36;33.29;95337.13;4957693;28;102687;-53
2022/01/01 05:20:03;;;;;;;20.20;18.50;;;;;;;23.37;33.18;95349.38;4957845;28;103175;-53
2022/01/01 05:22:28;;;;;;;20.00;18.40;;;;;;;23.36;33.28;95347.81;4958369;28;102735;-53
2022/01/01 05:24:59;;;;;;;19.30;17.67;;;;;;;23.37;33.08;95352.03;4957741;28;102723;-53
2022/01/01 05:27:28;;;;;;;20.30;18.53;;;;;;;23.35;33.10;95357.69;4957575;28;103870;-53
2022/01/01 05:29:54;;;;;;;20.47;18.77;;;;;;;23.36;33.28;95351.25;4957678;28;102684;-53
2022/01/01 05:32:20;;;;;;;21.00;19.30;;;;;;;23.36;32.98;95347.81;4956598;28;102876;-53
2022/01/01 05:34:45;;;;;;;17.90;16.40;;;;;;;23.37;33.41;95368.03;4958114;28;103639;-53
2022/01/01 05:37:11;;;;;;;19.67;18.13;;;;;;;23.36;33.14;95363.78;4958513;28;103319;-53
2022/01/01 05:39:37;;;;;;;19.67;18.07;;;;;;;23.37;33.28;95365.38;4957883;28;102685;-53
2022/01/01 05:42:03;;;;;;;21.27;19.40;;;;;;;23.36;33.12;95371.78;4957185;28;103337;-53
2022/01/01 05:44:28;;;;;;;21.57;19.80;;;;;;;23.36;33.33;95372.59;4958672;28;103695;-53
2022/01/01 05:46:54;;;;;;;22.30;20.47;;;;;;;23.37;33.45;95376.03;4958253;28;103417;-53
2022/01/01 05:49:20;;;;;;;20.80;19.00;;;;;;;23.36;33.04;95366.47;4958675;28;103597;-53
2022/01/01 05:51:46;;;;;;;22.43;20.63;;;;;;;23.36;33.48;95375.25;4958145;28;102676;-53
2022/01/01 05:54:12;;;;;;;21.03;19.33;;;;;;;23.36;33.28;95369.91;4956759;28;102776;-53
2022/01/01 05:56:37;;;;;;;21.83;20.03;;;;;;;23.36;32.94;95374.47;4957843;28;102676;-52
2022/01/01 05:59:03;;;;;;;21.87;20.00;;;;;;;23.36;32.80;95363.78;4959637;28;103459;-53
2022/01/01 06:01:28;;;;;;;20.87;19.17;;;;;;;23.35;33.32;95362.22;4961732;28;103674;-53
2022/01/01 06:03:54;;;;;;;19.97;18.27;;;;;;;23.36;33.02;95371.78;4963292;28;102819;-53
2022/01/01 06:06:20;;;;;;;20.00;18.30;;;;;;;23.35;33.10;95363.00;4963632;28;102755;-53
2022/01/01 06:08:45;;;;;;;20.67;18.87;;;;;;;23.36;32.89;95353.13;4963656;28;102750;-52
2022/01/01 06:11:11;;;;;;;20.87;19.20;;;;;;;23.35;33.03;95356.88;4963912;28;102716;-53
2022/01/01 06:13:36;;;;;;;20.60;18.90;;;;;;;23.35;33.28;95354.22;4963688;28;102627;-53
2022/01/01 06:16:03;;;;;;;20.80;19.07;;;;;;;23.35;33.46;95348.88;4964084;28;103674;-53
2022/01/01 06:18:28;;;;;;;20.70;18.90;;;;;;;23.36;33.26;95353.13;4963479;28;102696;-53
2022/01/01 06:20:54;;;;;;;20.00;18.30;;;;;;;23.35;33.23;95352.34;4963713;28;102735;-53
2022/01/01 06:23:20;;;;;;;21.27;19.47;;;;;;;23.35;33.07;95355.00;4963210;28;102912;-53
2022/01/01 06:25:46;;;;;;;19.60;18.00;;;;;;;23.38;32.81;95350.94;4963659;28;102895;-52
2022/01/01 06:28:12;;;;;;;18.33;16.93;;;;;;;23.42;33.21;95367.91;4964403;28;102814;-52
2022/01/01 06:30:38;;;;;;;17.47;15.97;;;;;;;23.44;32.62;95362.28;4962451;28;103409;-53
2022/01/01 06:33:11;;;;;;;18.23;16.60;;;;;;;23.46;32.95;95360.09;4963700;28;102657;-52
2022/01/01 06:35:37;;;;;;;17.03;15.73;;;;;;;23.46;32.58;95352.88;4963597;28;102859;-53
2022/01/01 06:38:03;;;;;;;16.73;15.43;;;;;;;23.48;32.86;95360.59;4962978;28;102786;-53
2022/01/01 06:40:28;;;;;;;17.50;16.10;;;;;;;23.49;32.43;95364.84;4963874;28;103280;-53
2022/01/01 06:42:54;;;;;;;17.67;16.10;;;;;;;23.49;32.86;95378.97;4964022;28;103597;-53
2022/01/01 06:45:19;;;;;;;16.50;15.10;;;;;;;23.51;32.57;95387.44;4950709;28;105246;-53
2022/01/01 06:47:45;;;;;;;16.70;15.40;;;;;;;23.52;32.48;95383.72;4964737;28;103060;-53
2022/01/01 06:50:11;;;;;;;17.47;16.13;;;;;;;23.53;32.49;95395.16;4963094;28;103277;-53
2022/01/01 06:52:42;;;;;;;15.87;14.63;;;;;;;23.53;32.50;95390.63;4941308;28;103534;-53
2022/01/01 06:55:08;;;;;;;15.53;14.30;;;;;;;23.54;32.73;95394.88;4962688;28;103085;-53
2022/01/01 06:57:34;;;;;;;15.93;14.33;;;;;;;23.56;32.31;95400.69;4964638;28;102745;-53
2022/01/01 06:59:59;;;;;;;15.73;14.50;;;;;;;23.56;32.12;95392.69;4961673;28;103229;-53
2022/01/01 07:02:25;;;;;;;15.73;14.43;;;;;;;23.58;32.37;95392.41;4963362;28;103051;-53
2022/01/01 07:04:50;;;;;;;15.30;14.10;;;;;;;23.80;31.88;95387.09;4964935;28;102717;-53
2022/01/01 07:07:16;;;;;;;15.20;13.80;;;;;;;24.37;31.20;95378.59;4964634;28;103163;-53
2022/01/01 07:09:41;;;;;;;15.70;14.40;;;;;;;24.53;30.77;95379.81;4963211;28;102700;-53
2022/01/01 07:12:07;;;;;;;14.40;13.20;;;;;;;24.59;30.87;95381.25;4960032;28;103649;-53
2022/01/01 07:14:32;;;;;;;15.43;14.23;;;;;;;24.59;31.38;95389.25;4961405;28;103259;-53
2022/01/01 07:16:58;;;;;;;14.63;13.53;;;;;;;24.57;30.87;95394.13;4962167;28;103710;-53
2022/01/01 07:19:23;;;;;;;16.87;15.40;;;;;;;24.64;30.96;95396.34;4960031;28;103185;-53
2022/01/01 07:21:49;;;;;;;14.50;13.40;;;;;;;24.68;30.74;95406.09;4958979;28;103911;-53
2022/01/01 07:24:14;;;;;;;16.17;14.90;;;;;;;24.70;31.10;95408.50;4943267;28;102859;-53
2022/01/01 07:26:40;;;;;;;14.63;13.53;;;;;;;24.57;30.83;95394.13;4960539;28;102809;-53
2022/01/01 07:29:05;;;;;;;14.10;13.00;;;;;;;24.44;31.44;95394.97;4959915;28;102848;-53
2022/01/01 07:31:31;;;;;;;15.43;14.23;;;;;;;24.44;31.69;95397.66;4959594;28;103468;-53
2022/01/01 07:33:56;;;;;;;16.43;15.13;;;;;;;24.47;31.34;95405.84;4957446;28;103540;-53
2022/01/01 07:36:22;;;;;;;16.73;15.33;;;;;;;24.52;31.46;95395.03;4960334;28;103350;-53
2022/01/01 07:38:47;;;;;;;16.90;15.43;;;;;;;24.59;30.97;95394.59;4959621;28;103303;-53
2022/01/01 07:41:13;;;;;;;17.27;15.87;;;;;;;24.64;31.17;95399.81;4959615;28;102854;-53
2022/01/01 07:43:38;;;;;;;19.73;18.00;;;;;;;24.55;31.52;95407.00;4957313;28;102786;-54
2022/01/01 07:46:04;;;;;;;17.43;15.73;;;;;;;24.47;32.41;95402.38;4957872;28;102723;-53
2022/01/01 07:48:29;;;;;;;16.83;15.43;;;;;;;24.44;32.71;95400.31;4954416;28;104571;-54
2022/01/01 07:50:55;;;;;;;15.97;14.67;;;;;;;24.42;32.68;95405.97;4956731;28;102865;-54
2022/01/01 07:53:20;;;;;;;15.13;13.47;;;;;;;24.43;32.56;95402.19;4959393;28;102783;-54
2022/01/01 07:55:46;;;;;;;15.13;13.77;;;;;;;24.44;32.77;95405.66;4955949;28;102675;-54
2022/01/01 07:58:11;;;;;;;15.87;14.27;;;;;;;24.46;33.07;95390.13;4957710;28;103343;-54
2022/01/01 08:00:37;;;;;;;14.60;13.30;;;;;;;24.47;33.03;95389.81;4959793;28;103295;-53
2022/01/01 08:03:02;;;;;;;14.60;13.20;;;;;;;24.50;33.22;95391.06;4959680;28;102715;-54
2022/01/01 08:05:28;;;;;;;13.50;12.40;;;;;;;24.50;33.71;95385.72;4959576;28;102768;-54
2022/01/01 08:07:53;;;;;;;13.50;12.30;;;;;;;24.48;33.48;95385.25;4957577;28;102720;-54
2022/01/01 08:10:20;;;;;;;14.30;13.10;;;;;;;24.48;33.51;95379.91;4958141;28;102805;-56
2022/01/01 08:12:46;;;;;;;13.20;12.00;;;;;;;24.45;34.00;95380.53;4962106;28;103699;-54
2022/01/01 08:15:12;;;;;;;12.47;11.37;;;;;;;24.39;34.06;95387.09;4962634;28;103084;-54
2022/01/01 08:17:37;;;;;;;16.00;12.20;;;;;;;24.38;34.12;95386.31;4970088;28;103262;-54
2022/01/01 08:20:04;;;;;;;12.20;11.20;;;;;;;24.39;34.58;95395.91;4960947;28;102727;-54
2022/01/01 08:22:29;;;;;;;12.30;11.17;;;;;;;24.40;34.47;95400.16;4958096;28;102814;-54
2022/01/01 08:24:55;;;;;;;12.80;11.57;;;;;;;24.35;34.88;95402.94;4959430;28;102816;-54
2022/01/01 08:27:20;;;;;;;12.97;11.67;;;;;;;24.28;34.76;95398.00;4958380;28;103039;-53
2022/01/01 08:29:46;;;;;;;13.13;11.83;;;;;;;24.34;35.29;95401.34;4958399;28;103311;-52
2022/01/01 08:32:11;;;;;;;12.80;11.50;;;;;;;24.30;35.41;95400.38;4956561;28;102836;-52
2022/01/01 08:34:37;;;;;;;12.60;11.30;;;;;;;24.25;35.26;95393.25;4959634;28;102699;-52
2022/01/01 08:37:03;;;;;;;13.00;11.70;;;;;;;24.21;35.58;95394.19;4957676;28;102926;-52
2022/01/01 08:39:29;;;;;;;12.73;11.53;;;;;;;24.20;35.38;95390.72;4956369;28;102923;-52
2022/01/01 08:41:55;;;;;;;12.97;11.70;;;;;;;24.21;35.52;95394.97;4957900;28;102858;-52
2022/01/01 08:44:21;;;;;;;13.23;11.93;;;;;;;24.22;35.38;95390.41;4958822;28;102668;-53
2022/01/01 08:46:46;;;;;;;15.27;11.30;;;;;;;24.24;35.09;95388.22;4959024;28;103381;-52
2022/01/01 08:49:12;;;;;;;12.60;11.50;;;;;;;24.22;35.86;95396.56;4958448;28;103715;-52
2022/01/01 08:51:40;;;;;;;13.40;12.30;;;;;;;24.21;35.81;95396.84;4957562;28;102950;-52
2022/01/01 08:54:06;;;;;;;22.80;14.40;;;;;;;24.18;36.22;95406.22;4958110;28;103034;-52
2022/01/01 08:56:32;;;;;;;15.77;13.90;;;;;;;24.17;35.51;95414.56;4956110;28;103201;-52
2022/01/01 08:58:58;;;;;;;18.90;16.97;;;;;;;24.10;34.73;95412.31;4955110;28;103317;-52
2022/01/01 09:01:23;;;;;;;16.30;14.80;;;;;;;23.96;34.54;95406.22;4952849;28;104839;-52
2022/01/01 09:03:49;;;;;;;17.40;12.57;;;;;;;23.86;36.08;95401.16;4946127;28;103182;-52
2022/01/01 09:06:14;;;;;;;14.73;12.87;;;;;;;23.92;35.42;95400.72;4957881;28;102512;-52
2022/01/01 09:08:42;;;;;;;13.60;12.30;;;;;;;23.98;34.78;95402.16;4957558;28;102745;-52
2022/01/01 09:11:12;;;;;;;9.23;8.50;;;;;;;23.98;33.82;95412.84;4956386;28;102980;-52
2022/01/01 09:13:41;;;;;;;11.23;10.00;;;;;;;23.97;34.62;95418.50;4956105;28;102735;-52
2022/01/01 09:16:10;;;;;;;10.33;9.47;;;;;;;23.94;34.12;95406.53;4957449;28;103391;-52
2022/01/01 09:18:37;;;;;;;10.77;9.77;;;;;;;23.94;35.66;95427.88;4957934;28;103317;-52
2022/01/01 09:21:02;;;;;;;10.27;8.97;;;;;;;23.94;34.36;95406.53;4957308;28;102756;-53
2022/01/01 09:23:28;;;;;;;8.97;8.07;;;;;;;23.92;34.51;95424.75;4958119;28;103151;-52
2022/01/01 09:25:53;;;;;;;8.50;7.60;;;;;;;23.94;34.01;95419.09;4958570;28;103378;-52
2022/01/01 09:28:19;;;;;;;7.73;7.03;;;;;;;23.92;34.17;95421.28;4958204;28;102927;-52
2022/01/01 09:30:44;;;;;;;7.43;6.83;;;;;;;23.92;33.82;95426.63;4957765;28;102701;-52
2022/01/01 09:33:12;;;;;;;6.90;6.10;;;;;;;23.94;33.98;95424.44;4958545;28;103596;-52
2022/01/01 09:35:38;;;;;;;6.40;5.90;;;;;;;23.95;34.07;95412.66;4957207;28;104514;-52
2022/01/01 09:38:04;;;;;;;6.13;5.63;;;;;;;23.94;33.30;95422.56;4958407;28;102762;-52
2022/01/01 09:40:31;;;;;;;5.83;5.43;;;;;;;23.94;33.79;95435.09;4958099;28;102764;-52
2022/01/01 09:42:58;;;;;;;6.13;5.63;;;;;;;23.91;33.54;95441.06;4958001;28;103184;-52
2022/01/01 09:45:24;;;;;;;5.63;5.23;;;;;;;23.93;33.51;95449.53;4956931;28;102716;-52
2022/01/01 09:47:50;;;;;;;5.57;5.10;;;;;;;23.88;33.46;95444.31;4958020;28;104566;-52
2022/01/01 09:50:16;;;;;;;6.00;5.43;;;;;;;23.82;34.02;95440.19;4957339;28;102708;-52
2022/01/01 09:52:41;;;;;;;6.10;5.60;;;;;;;23.79;34.17;95440.78;4958518;28;102753;-52
2022/01/01 09:55:09;;;;;;;7.10;5.73;;;;;;;23.75;33.70;95439.81;4957296;28;102701;-52
2022/01/01 09:57:34;;;;;;;6.83;6.27;;;;;;;23.69;34.15;95434.59;4957030;28;103576;-52
2022/01/01 10:00:00;;;;;;;6.30;5.80;;;;;;;23.66;34.38;95429.81;4957750;28;102830;-52
2022/01/01 10:02:25;;;;;;;5.40;5.00;;;;;;;23.65;34.38;95443.47;4957120;28;102655;-52
2022/01/01 10:04:54;;;;;;;5.10;4.70;;;;;;;23.63;34.34;95442.97;4957926;28;102634;-52
2022/01/01 10:07:29;;;;;;;5.10;4.70;;;;;;;23.60;34.15;95439.03;4958061;28;102803;-52
2022/01/01 10:09:54;;;;;;;4.77;4.37;;;;;;;23.56;33.80;95443.38;4957672;28;103631;-52
2022/01/01 10:12:36;;;;;;;4.00;3.70;;;;;;;23.54;34.16;95445.53;4956796;28;103330;-52
2022/01/01 10:15:06;;;;;;;5.57;4.30;;;;;;;23.52;33.72;95444.28;4960562;28;103194;-52
2022/01/01 10:17:32;;;;;;;4.43;4.13;;;;;;;23.51;33.86;95435.44;4965358;28;104744;-52
2022/01/01 10:19:57;;;;;;;3.93;3.63;;;;;;;23.49;34.00;95442.97;4977517;28;102990;-52
2022/01/01 10:22:24;;;;;;;3.80;3.50;;;;;;;23.48;33.68;95440.59;4978242;28;102865;-52
2022/01/01 10:28:04;;;;;;;4.23;3.87;;;;;;;23.43;33.85;95436.16;4963440;28;103083;-51
2022/01/01 10:30:36;;;;;;;4.63;4.30;;;;;;;23.45;33.92;95435.88;4951663;28;103163;-52
2022/01/01 10:33:10;;;;;;;4.37;3.97;;;;;;;23.52;33.92;95437.06;4945510;28;102732;-52
2022/01/01 10:35:47;;;;;;;5.40;4.17;;;;;;;23.57;34.29;95420.97;4945925;28;103383;-52
2022/01/01 10:38:15;;;;;;;5.13;4.73;;;;;;;23.66;34.59;95416.50;4952368;28;102990;-51
2022/01/01 10:40:42;;;;;;;5.53;5.03;;;;;;;23.73;35.75;95416.09;4933832;28;104872;-52
2022/01/01 10:43:08;;;;;;;4.87;4.47;;;;;;;23.80;35.63;95405.00;4947971;28;103225;-52
2022/01/01 10:45:40;;;;;;;5.83;5.20;;;;;;;23.87;35.47;95416.06;4953370;28;103226;-51
2022/01/01 10:48:14;;;;;;;5.70;5.20;;;;;;;23.95;35.41;95405.44;4956463;28;103397;-52
2022/01/01 10:50:40;;;;;;;5.17;4.77;;;;;;;23.99;35.67;95406.41;4945765;28;103714;-52
2022/01/01 10:53:13;;;;;;;8.73;5.33;;;;;;;24.08;36.04;95411.03;4954038;28;103475;-52
2022/01/01 10:55:43;;;;;;;6.30;5.77;;;;;;;24.09;35.53;95402.72;4958313;28;103282;-52
2022/01/01 10:58:15;;;;;;;6.10;5.60;;;;;;;24.15;35.38;95398.84;4953274;28;103298;-51
2022/01/01 11:00:41;;;;;;;4.97;4.57;;;;;;;24.18;35.46;95390.22;4953936;28;102868;-52
2022/01/01 11:03:15;;;;;;;5.50;5.00;;;;;;;24.18;35.37;95392.88;4956510;28;103362;-51
2022/01/01 11:05:41;;;;;;;5.60;5.20;;;;;;;24.21;35.44;95389.63;4955072;28;103172;-51
2022/01/01 11:08:08;;;;;;;6.17;4.90;;;;;;;24.27;35.71;95393.75;4952384;28;103256;-52
2022/01/01 11:10:35;;;;;;;5.57;5.07;;;;;;;24.27;35.39;95393.75;4955628;28;102794;-52
2022/01/01 11:13:02;;;;;;;5.43;4.93;;;;;;;24.28;35.38;95392.66;4955230;28;102815;-52